sensor_id;sensor_type;location;lat;lon;timestamp;P1;durP1;ratioP1;P2;durP2;ratioP2
44214;SDS011;29884;47.450;19.124;2023-05-15T00:02:24;3.67;;;2.80;;
44214;SDS011;29884;47.450;19.124;2023-05-15T00:04:50;5.88;;;2.92;;
44214;SDS011;29884;47.450;19.124;2023-05-15T00:07:19;3.97;;;2.38;;
44214;SDS011;29884;47.450;19.124;2023-05-15T00:09:45;3.33;;;2.40;;
44214;SDS011;29884;47.450;19.124;2023-05-15T00:12:11;2.65;;;2.33;;
44214;SDS011;29884;47.450;19.124;2023-05-15T00:14:37;3.40;;;3.00;;
44214;SDS011;29884;47.450;19.124;2023-05-15T00:17:02;3.67;;;2.72;;
44214;SDS011;29884;47.450;19.124;2023-05-15T00:19:32;5.25;;;3.05;;
44214;SDS011;29884;47.450;19.124;2023-05-15T00:21:57;4.00;;;3.13;;
44214;SDS011;29884;47.450;19.124;2023-05-15T00:24:24;5.68;;;3.30;;
44214;SDS011;29884;47.450;19.124;2023-05-15T00:26:49;3.90;;;3.10;;
44214;SDS011;29884;47.450;19.124;2023-05-15T00:29:15;3.45;;;2.83;;
44214;SDS011;29884;47.450;19.124;2023-05-15T00:31:41;4.72;;;2.88;;
44214;SDS011;29884;47.450;19.124;2023-05-15T00:34:07;3.85;;;2.90;;
44214;SDS011;29884;47.450;19.124;2023-05-15T00:36:32;3.83;;;2.92;;
44214;SDS011;29884;47.450;19.124;2023-05-15T00:38:58;3.85;;;2.70;;
44214;SDS011;29884;47.450;19.124;2023-05-15T00:41:24;3.35;;;2.97;;
44214;SDS011;29884;47.450;19.124;2023-05-15T00:43:52;3.53;;;2.65;;
44214;SDS011;29884;47.450;19.124;2023-05-15T00:46:20;4.38;;;2.92;;
44214;SDS011;29884;47.450;19.124;2023-05-15T00:48:47;3.85;;;2.60;;
44214;SDS011;29884;47.450;19.124;2023-05-15T00:51:15;6.80;;;3.30;;
44214;SDS011;29884;47.450;19.124;2023-05-15T00:53:41;4.45;;;3.10;;
44214;SDS011;29884;47.450;19.124;2023-05-15T00:56:08;4.55;;;2.78;;
44214;SDS011;29884;47.450;19.124;2023-05-15T00:58:36;4.07;;;2.97;;
44214;SDS011;29884;47.450;19.124;2023-05-15T01:01:02;4.80;;;3.67;;
44214;SDS011;29884;47.450;19.124;2023-05-15T01:03:28;5.82;;;3.30;;
44214;SDS011;29884;47.450;19.124;2023-05-15T01:05:54;3.35;;;3.00;;
44214;SDS011;29884;47.450;19.124;2023-05-15T01:11:10;4.43;;;3.45;;
44214;SDS011;29884;47.450;19.124;2023-05-15T01:13:38;4.47;;;3.17;;
44214;SDS011;29884;47.450;19.124;2023-05-15T01:16:04;4.68;;;3.35;;
44214;SDS011;29884;47.450;19.124;2023-05-15T01:18:31;4.63;;;3.47;;
44214;SDS011;29884;47.450;19.124;2023-05-15T01:23:47;6.15;;;3.67;;
44214;SDS011;29884;47.450;19.124;2023-05-15T01:29:06;3.95;;;3.20;;
44214;SDS011;29884;47.450;19.124;2023-05-15T01:31:38;3.97;;;3.20;;
44214;SDS011;29884;47.450;19.124;2023-05-15T01:34:07;6.20;;;3.28;;
44214;SDS011;29884;47.450;19.124;2023-05-15T01:36:36;4.47;;;3.40;;
44214;SDS011;29884;47.450;19.124;2023-05-15T01:39:07;4.90;;;3.20;;
44214;SDS011;29884;47.450;19.124;2023-05-15T01:41:43;4.97;;;3.45;;
44214;SDS011;29884;47.450;19.124;2023-05-15T01:46:43;4.65;;;3.88;;
44214;SDS011;29884;47.450;19.124;2023-05-15T01:49:15;5.00;;;3.70;;
44214;SDS011;29884;47.450;19.124;2023-05-15T01:51:43;4.07;;;3.40;;
44214;SDS011;29884;47.450;19.124;2023-05-15T01:54:12;5.03;;;3.28;;
44214;SDS011;29884;47.450;19.124;2023-05-15T01:56:40;4.15;;;3.72;;
44214;SDS011;29884;47.450;19.124;2023-05-15T01:59:09;5.07;;;3.92;;
44214;SDS011;29884;47.450;19.124;2023-05-15T02:01:38;5.60;;;3.63;;
44214;SDS011;29884;47.450;19.124;2023-05-15T02:04:04;6.05;;;3.33;;
44214;SDS011;29884;47.450;19.124;2023-05-15T02:06:31;3.50;;;3.20;;
44214;SDS011;29884;47.450;19.124;2023-05-15T02:09:00;4.78;;;3.30;;
44214;SDS011;29884;47.450;19.124;2023-05-15T02:11:27;6.00;;;3.60;;
44214;SDS011;29884;47.450;19.124;2023-05-15T02:13:53;5.95;;;3.90;;
44214;SDS011;29884;47.450;19.124;2023-05-15T02:16:20;4.50;;;3.75;;
44214;SDS011;29884;47.450;19.124;2023-05-15T02:18:46;4.70;;;3.78;;
44214;SDS011;29884;47.450;19.124;2023-05-15T02:21:12;5.60;;;3.80;;
44214;SDS011;29884;47.450;19.124;2023-05-15T02:23:39;4.60;;;3.70;;
44214;SDS011;29884;47.450;19.124;2023-05-15T02:26:13;4.13;;;3.42;;
44214;SDS011;29884;47.450;19.124;2023-05-15T02:29:17;6.50;;;3.70;;
44214;SDS011;29884;47.450;19.124;2023-05-15T02:36:59;6.03;;;3.83;;
44214;SDS011;29884;47.450;19.124;2023-05-15T02:39:27;8.52;;;3.92;;
44214;SDS011;29884;47.450;19.124;2023-05-15T02:41:53;4.65;;;4.03;;
44214;SDS011;29884;47.450;19.124;2023-05-15T02:44:20;4.68;;;3.67;;
44214;SDS011;29884;47.450;19.124;2023-05-15T02:46:47;6.13;;;4.05;;
44214;SDS011;29884;47.450;19.124;2023-05-15T02:49:16;4.78;;;3.78;;
44214;SDS011;29884;47.450;19.124;2023-05-15T02:51:42;5.10;;;4.20;;
44214;SDS011;29884;47.450;19.124;2023-05-15T02:54:08;4.38;;;3.85;;
44214;SDS011;29884;47.450;19.124;2023-05-15T02:56:34;4.70;;;4.20;;
44214;SDS011;29884;47.450;19.124;2023-05-15T02:59:00;6.65;;;3.70;;
44214;SDS011;29884;47.450;19.124;2023-05-15T03:01:26;6.63;;;4.25;;
44214;SDS011;29884;47.450;19.124;2023-05-15T03:03:52;6.00;;;4.18;;
44214;SDS011;29884;47.450;19.124;2023-05-15T03:06:18;4.43;;;4.03;;
44214;SDS011;29884;47.450;19.124;2023-05-15T03:08:43;8.45;;;4.13;;
44214;SDS011;29884;47.450;19.124;2023-05-15T03:11:09;5.55;;;3.97;;
44214;SDS011;29884;47.450;19.124;2023-05-15T03:13:35;6.38;;;4.75;;
44214;SDS011;29884;47.450;19.124;2023-05-15T03:16:01;5.55;;;4.32;;
44214;SDS011;29884;47.450;19.124;2023-05-15T03:18:26;6.30;;;4.45;;
44214;SDS011;29884;47.450;19.124;2023-05-15T03:20:52;5.03;;;4.20;;
44214;SDS011;29884;47.450;19.124;2023-05-15T03:23:18;7.22;;;4.40;;
44214;SDS011;29884;47.450;19.124;2023-05-15T03:25:44;5.63;;;4.20;;
44214;SDS011;29884;47.450;19.124;2023-05-15T03:28:10;4.60;;;4.10;;
44214;SDS011;29884;47.450;19.124;2023-05-15T03:30:36;7.05;;;4.75;;
44214;SDS011;29884;47.450;19.124;2023-05-15T03:33:01;6.00;;;4.82;;
44214;SDS011;29884;47.450;19.124;2023-05-15T03:35:28;5.95;;;4.43;;
44214;SDS011;29884;47.450;19.124;2023-05-15T03:37:56;7.20;;;4.78;;
44214;SDS011;29884;47.450;19.124;2023-05-15T03:40:22;7.15;;;5.50;;
44214;SDS011;29884;47.450;19.124;2023-05-15T03:42:47;8.73;;;5.85;;
44214;SDS011;29884;47.450;19.124;2023-05-15T03:45:17;6.85;;;5.20;;
44214;SDS011;29884;47.450;19.124;2023-05-15T03:47:43;8.68;;;5.80;;
44214;SDS011;29884;47.450;19.124;2023-05-15T03:50:10;7.07;;;5.38;;
44214;SDS011;29884;47.450;19.124;2023-05-15T03:52:36;7.43;;;5.63;;
44214;SDS011;29884;47.450;19.124;2023-05-15T03:55:01;8.32;;;5.78;;
44214;SDS011;29884;47.450;19.124;2023-05-15T03:57:27;9.23;;;6.53;;
44214;SDS011;29884;47.450;19.124;2023-05-15T03:59:53;8.52;;;5.75;;
44214;SDS011;29884;47.450;19.124;2023-05-15T04:02:19;6.93;;;6.05;;
44214;SDS011;29884;47.450;19.124;2023-05-15T04:04:45;6.32;;;5.65;;
44214;SDS011;29884;47.450;19.124;2023-05-15T04:07:11;7.90;;;5.88;;
44214;SDS011;29884;47.450;19.124;2023-05-15T04:09:36;6.55;;;5.70;;
44214;SDS011;29884;47.450;19.124;2023-05-15T04:12:02;9.48;;;6.00;;
44214;SDS011;29884;47.450;19.124;2023-05-15T04:14:28;7.75;;;6.18;;
44214;SDS011;29884;47.450;19.124;2023-05-15T04:16:54;7.82;;;5.82;;
44214;SDS011;29884;47.450;19.124;2023-05-15T04:19:20;7.50;;;6.03;;
44214;SDS011;29884;47.450;19.124;2023-05-15T04:21:46;6.40;;;5.60;;
44214;SDS011;29884;47.450;19.124;2023-05-15T04:24:11;9.73;;;6.60;;
44214;SDS011;29884;47.450;19.124;2023-05-15T04:26:37;10.20;;;6.47;;
44214;SDS011;29884;47.450;19.124;2023-05-15T04:29:03;9.63;;;6.43;;
44214;SDS011;29884;47.450;19.124;2023-05-15T04:31:29;7.28;;;6.32;;
44214;SDS011;29884;47.450;19.124;2023-05-15T04:33:55;7.72;;;6.55;;
44214;SDS011;29884;47.450;19.124;2023-05-15T04:36:21;9.55;;;6.68;;
44214;SDS011;29884;47.450;19.124;2023-05-15T04:38:47;8.32;;;6.78;;
44214;SDS011;29884;47.450;19.124;2023-05-15T04:41:12;10.35;;;7.07;;
44214;SDS011;29884;47.450;19.124;2023-05-15T04:43:38;8.07;;;6.80;;
44214;SDS011;29884;47.450;19.124;2023-05-15T04:46:04;11.80;;;7.68;;
44214;SDS011;29884;47.450;19.124;2023-05-15T04:48:30;11.48;;;7.72;;
44214;SDS011;29884;47.450;19.124;2023-05-15T04:50:56;9.88;;;7.68;;
44214;SDS011;29884;47.450;19.124;2023-05-15T04:53:21;10.65;;;8.05;;
44214;SDS011;29884;47.450;19.124;2023-05-15T04:55:47;12.43;;;8.13;;
44214;SDS011;29884;47.450;19.124;2023-05-15T04:58:15;13.30;;;8.20;;
44214;SDS011;29884;47.450;19.124;2023-05-15T05:00:41;13.55;;;8.57;;
44214;SDS011;29884;47.450;19.124;2023-05-15T05:03:07;11.98;;;8.65;;
44214;SDS011;29884;47.450;19.124;2023-05-15T05:05:32;14.52;;;8.65;;
44214;SDS011;29884;47.450;19.124;2023-05-15T05:07:58;13.05;;;8.90;;
44214;SDS011;29884;47.450;19.124;2023-05-15T05:10:24;14.80;;;9.02;;
44214;SDS011;29884;47.450;19.124;2023-05-15T05:12:50;12.95;;;8.38;;
44214;SDS011;29884;47.450;19.124;2023-05-15T05:15:15;14.25;;;8.75;;
44214;SDS011;29884;47.450;19.124;2023-05-15T05:17:41;13.07;;;8.98;;
44214;SDS011;29884;47.450;19.124;2023-05-15T05:20:07;16.77;;;9.20;;
44214;SDS011;29884;47.450;19.124;2023-05-15T05:22:34;14.52;;;8.68;;
44214;SDS011;29884;47.450;19.124;2023-05-15T05:25:00;16.90;;;9.68;;
44214;SDS011;29884;47.450;19.124;2023-05-15T05:27:25;15.50;;;9.45;;
44214;SDS011;29884;47.450;19.124;2023-05-15T05:29:51;14.55;;;9.50;;
44214;SDS011;29884;47.450;19.124;2023-05-15T05:32:18;13.57;;;9.23;;
44214;SDS011;29884;47.450;19.124;2023-05-15T05:34:44;16.10;;;9.52;;
44214;SDS011;29884;47.450;19.124;2023-05-15T05:37:09;12.25;;;8.77;;
44214;SDS011;29884;47.450;19.124;2023-05-15T05:39:38;15.10;;;9.50;;
44214;SDS011;29884;47.450;19.124;2023-05-15T05:42:04;13.57;;;8.63;;
44214;SDS011;29884;47.450;19.124;2023-05-15T05:44:29;13.30;;;8.57;;
44214;SDS011;29884;47.450;19.124;2023-05-15T05:46:55;12.68;;;8.90;;
44214;SDS011;29884;47.450;19.124;2023-05-15T05:49:21;17.08;;;9.70;;
44214;SDS011;29884;47.450;19.124;2023-05-15T05:51:47;15.70;;;9.30;;
44214;SDS011;29884;47.450;19.124;2023-05-15T05:54:13;12.38;;;7.82;;
44214;SDS011;29884;47.450;19.124;2023-05-15T05:56:40;13.50;;;7.90;;
44214;SDS011;29884;47.450;19.124;2023-05-15T05:59:07;11.68;;;8.02;;
44214;SDS011;29884;47.450;19.124;2023-05-15T06:01:33;12.27;;;8.15;;
44214;SDS011;29884;47.450;19.124;2023-05-15T06:03:58;12.18;;;8.02;;
44214;SDS011;29884;47.450;19.124;2023-05-15T06:06:24;12.35;;;7.88;;
44214;SDS011;29884;47.450;19.124;2023-05-15T06:08:50;14.63;;;7.97;;
44214;SDS011;29884;47.450;19.124;2023-05-15T06:11:15;12.52;;;7.82;;
44214;SDS011;29884;47.450;19.124;2023-05-15T06:13:41;13.20;;;8.73;;
44214;SDS011;29884;47.450;19.124;2023-05-15T06:16:07;13.70;;;8.20;;
44214;SDS011;29884;47.450;19.124;2023-05-15T06:18:33;10.85;;;7.63;;
44214;SDS011;29884;47.450;19.124;2023-05-15T06:20:59;10.88;;;7.57;;
44214;SDS011;29884;47.450;19.124;2023-05-15T06:23:25;12.13;;;7.78;;
44214;SDS011;29884;47.450;19.124;2023-05-15T06:25:51;11.68;;;7.20;;
44214;SDS011;29884;47.450;19.124;2023-05-15T06:28:17;11.68;;;7.60;;
44214;SDS011;29884;47.450;19.124;2023-05-15T06:30:42;10.60;;;7.50;;
44214;SDS011;29884;47.450;19.124;2023-05-15T06:33:08;10.52;;;7.75;;
44214;SDS011;29884;47.450;19.124;2023-05-15T06:35:34;10.95;;;7.45;;
44214;SDS011;29884;47.450;19.124;2023-05-15T06:38:00;10.15;;;7.03;;
44214;SDS011;29884;47.450;19.124;2023-05-15T06:40:26;8.95;;;6.55;;
44214;SDS011;29884;47.450;19.124;2023-05-15T06:42:52;8.70;;;6.10;;
44214;SDS011;29884;47.450;19.124;2023-05-15T06:45:17;9.98;;;6.30;;
44214;SDS011;29884;47.450;19.124;2023-05-15T06:47:43;9.95;;;6.57;;
44214;SDS011;29884;47.450;19.124;2023-05-15T06:50:09;10.23;;;6.75;;
44214;SDS011;29884;47.450;19.124;2023-05-15T06:52:35;8.43;;;5.88;;
44214;SDS011;29884;47.450;19.124;2023-05-15T06:55:03;8.02;;;5.75;;
44214;SDS011;29884;47.450;19.124;2023-05-15T06:57:29;8.07;;;6.00;;
44214;SDS011;29884;47.450;19.124;2023-05-15T06:59:57;8.55;;;5.60;;
44214;SDS011;29884;47.450;19.124;2023-05-15T07:02:23;7.22;;;5.10;;
44214;SDS011;29884;47.450;19.124;2023-05-15T07:04:48;6.32;;;4.88;;
44214;SDS011;29884;47.450;19.124;2023-05-15T07:07:15;6.28;;;5.00;;
44214;SDS011;29884;47.450;19.124;2023-05-15T07:09:41;7.65;;;5.47;;
44214;SDS011;29884;47.450;19.124;2023-05-15T07:12:07;7.18;;;5.47;;
44214;SDS011;29884;47.450;19.124;2023-05-15T07:14:33;6.40;;;5.15;;
44214;SDS011;29884;47.450;19.124;2023-05-15T07:16:58;6.53;;;4.40;;
44214;SDS011;29884;47.450;19.124;2023-05-15T07:19:24;5.35;;;3.92;;
44214;SDS011;29884;47.450;19.124;2023-05-15T07:21:50;4.78;;;4.00;;
44214;SDS011;29884;47.450;19.124;2023-05-15T07:24:16;7.30;;;4.57;;
44214;SDS011;29884;47.450;19.124;2023-05-15T07:26:41;6.53;;;4.72;;
44214;SDS011;29884;47.450;19.124;2023-05-15T07:29:07;5.82;;;4.43;;
44214;SDS011;29884;47.450;19.124;2023-05-15T07:31:33;6.18;;;4.45;;
44214;SDS011;29884;47.450;19.124;2023-05-15T07:33:59;5.90;;;4.80;;
44214;SDS011;29884;47.450;19.124;2023-05-15T07:36:25;5.95;;;4.45;;
44214;SDS011;29884;47.450;19.124;2023-05-15T07:38:50;6.30;;;4.43;;
44214;SDS011;29884;47.450;19.124;2023-05-15T07:41:16;5.15;;;4.00;;
44214;SDS011;29884;47.450;19.124;2023-05-15T07:43:42;5.95;;;3.80;;
44214;SDS011;29884;47.450;19.124;2023-05-15T07:46:08;4.82;;;3.40;;
44214;SDS011;29884;47.450;19.124;2023-05-15T07:48:33;4.18;;;3.30;;
44214;SDS011;29884;47.450;19.124;2023-05-15T07:50:59;7.03;;;4.47;;
44214;SDS011;29884;47.450;19.124;2023-05-15T07:53:25;4.60;;;3.95;;
44214;SDS011;29884;47.450;19.124;2023-05-15T07:55:51;6.22;;;3.55;;
44214;SDS011;29884;47.450;19.124;2023-05-15T07:58:16;4.13;;;3.35;;
44214;SDS011;29884;47.450;19.124;2023-05-15T08:00:42;5.13;;;3.50;;
44214;SDS011;29884;47.450;19.124;2023-05-15T08:03:09;5.47;;;3.92;;
44214;SDS011;29884;47.450;19.124;2023-05-15T08:05:35;4.95;;;3.80;;
44214;SDS011;29884;47.450;19.124;2023-05-15T08:08:00;5.40;;;4.50;;
44214;SDS011;29884;47.450;19.124;2023-05-15T08:10:26;5.85;;;4.22;;
44214;SDS011;29884;47.450;19.124;2023-05-15T08:12:52;4.40;;;3.67;;
44214;SDS011;29884;47.450;19.124;2023-05-15T08:15:17;4.22;;;3.65;;
44214;SDS011;29884;47.450;19.124;2023-05-15T08:17:43;4.45;;;3.22;;
44214;SDS011;29884;47.450;19.124;2023-05-15T08:20:09;3.85;;;2.92;;
44214;SDS011;29884;47.450;19.124;2023-05-15T08:22:35;4.75;;;3.67;;
44214;SDS011;29884;47.450;19.124;2023-05-15T08:25:01;6.78;;;3.90;;
44214;SDS011;29884;47.450;19.124;2023-05-15T08:27:27;5.93;;;3.60;;
44214;SDS011;29884;47.450;19.124;2023-05-15T08:29:53;4.15;;;3.40;;
44214;SDS011;29884;47.450;19.124;2023-05-15T08:32:19;5.07;;;3.67;;
44214;SDS011;29884;47.450;19.124;2023-05-15T08:34:45;6.35;;;3.90;;
44214;SDS011;29884;47.450;19.124;2023-05-15T08:37:10;5.07;;;3.90;;
44214;SDS011;29884;47.450;19.124;2023-05-15T08:39:36;5.00;;;3.63;;
44214;SDS011;29884;47.450;19.124;2023-05-15T08:42:23;4.80;;;3.65;;
44214;SDS011;29884;47.450;19.124;2023-05-15T08:44:52;4.18;;;3.08;;
44214;SDS011;29884;47.450;19.124;2023-05-15T08:47:19;4.03;;;2.92;;
44214;SDS011;29884;47.450;19.124;2023-05-15T08:52:18;3.67;;;2.93;;
44214;SDS011;29884;47.450;19.124;2023-05-15T08:54:44;3.80;;;2.83;;
44214;SDS011;29884;47.450;19.124;2023-05-15T08:57:11;3.35;;;2.80;;
44214;SDS011;29884;47.450;19.124;2023-05-15T08:59:38;3.40;;;2.60;;
44214;SDS011;29884;47.450;19.124;2023-05-15T09:02:05;3.25;;;2.00;;
44214;SDS011;29884;47.450;19.124;2023-05-15T09:04:30;3.40;;;2.50;;
44214;SDS011;29884;47.450;19.124;2023-05-15T09:06:59;2.83;;;2.28;;
44214;SDS011;29884;47.450;19.124;2023-05-15T09:09:26;4.00;;;3.03;;
44214;SDS011;29884;47.450;19.124;2023-05-15T09:11:53;2.80;;;2.30;;
44214;SDS011;29884;47.450;19.124;2023-05-15T09:14:19;2.70;;;2.00;;
44214;SDS011;29884;47.450;19.124;2023-05-15T09:16:45;3.25;;;2.05;;
44214;SDS011;29884;47.450;19.124;2023-05-15T09:19:14;2.83;;;2.20;;
44214;SDS011;29884;47.450;19.124;2023-05-15T09:21:42;2.92;;;2.10;;
44214;SDS011;29884;47.450;19.124;2023-05-15T09:24:24;5.50;;;2.30;;
44214;SDS011;29884;47.450;19.124;2023-05-15T09:29:31;2.47;;;1.40;;
44214;SDS011;29884;47.450;19.124;2023-05-15T09:32:01;3.08;;;1.95;;
44214;SDS011;29884;47.450;19.124;2023-05-15T09:34:32;1.70;;;1.17;;
44214;SDS011;29884;47.450;19.124;2023-05-15T09:37:00;1.90;;;1.20;;
44214;SDS011;29884;47.450;19.124;2023-05-15T09:39:27;1.45;;;0.80;;
44214;SDS011;29884;47.450;19.124;2023-05-15T09:41:53;1.08;;;0.80;;
44214;SDS011;29884;47.450;19.124;2023-05-15T09:44:30;1.08;;;0.70;;
44214;SDS011;29884;47.450;19.124;2023-05-15T09:46:57;1.60;;;1.00;;
44214;SDS011;29884;47.450;19.124;2023-05-15T09:49:23;2.25;;;1.20;;
44214;SDS011;29884;47.450;19.124;2023-05-15T09:51:49;2.33;;;1.30;;
44214;SDS011;29884;47.450;19.124;2023-05-15T09:54:16;2.05;;;1.30;;
44214;SDS011;29884;47.450;19.124;2023-05-15T09:56:45;2.95;;;1.20;;
44214;SDS011;29884;47.450;19.124;2023-05-15T09:59:12;1.83;;;1.25;;
44214;SDS011;29884;47.450;19.124;2023-05-15T10:01:41;1.63;;;1.00;;
44214;SDS011;29884;47.450;19.124;2023-05-15T10:04:09;2.30;;;1.20;;
44214;SDS011;29884;47.450;19.124;2023-05-15T10:06:42;4.28;;;1.17;;
44214;SDS011;29884;47.450;19.124;2023-05-15T10:09:10;1.90;;;1.25;;
44214;SDS011;29884;47.450;19.124;2023-05-15T10:11:38;1.92;;;1.20;;
44214;SDS011;29884;47.450;19.124;2023-05-15T10:14:10;2.72;;;1.20;;
44214;SDS011;29884;47.450;19.124;2023-05-15T10:16:37;1.30;;;1.00;;
44214;SDS011;29884;47.450;19.124;2023-05-15T10:19:05;1.25;;;0.85;;
44214;SDS011;29884;47.450;19.124;2023-05-15T10:21:32;1.10;;;0.75;;
44214;SDS011;29884;47.450;19.124;2023-05-15T10:23:59;1.23;;;0.80;;
44214;SDS011;29884;47.450;19.124;2023-05-15T10:26:39;1.20;;;0.80;;
44214;SDS011;29884;47.450;19.124;2023-05-15T10:29:13;1.65;;;0.90;;
44214;SDS011;29884;47.450;19.124;2023-05-15T10:31:41;1.85;;;1.08;;
44214;SDS011;29884;47.450;19.124;2023-05-15T10:34:07;1.80;;;1.00;;
44214;SDS011;29884;47.450;19.124;2023-05-15T10:36:35;1.00;;;0.80;;
44214;SDS011;29884;47.450;19.124;2023-05-15T10:39:03;1.35;;;1.00;;
44214;SDS011;29884;47.450;19.124;2023-05-15T10:41:30;2.15;;;0.88;;
44214;SDS011;29884;47.450;19.124;2023-05-15T10:44:00;1.00;;;0.80;;
44214;SDS011;29884;47.450;19.124;2023-05-15T10:46:29;1.13;;;0.82;;
44214;SDS011;29884;47.450;19.124;2023-05-15T10:48:57;1.10;;;0.70;;
44214;SDS011;29884;47.450;19.124;2023-05-15T10:51:25;1.83;;;0.90;;
44214;SDS011;29884;47.450;19.124;2023-05-15T10:53:52;1.10;;;0.63;;
44214;SDS011;29884;47.450;19.124;2023-05-15T10:56:19;2.40;;;0.70;;
44214;SDS011;29884;47.450;19.124;2023-05-15T11:01:48;2.35;;;0.40;;
44214;SDS011;29884;47.450;19.124;2023-05-15T11:06:42;0.75;;;0.43;;
44214;SDS011;29884;47.450;19.124;2023-05-15T11:11:59;1.95;;;0.50;;
44214;SDS011;29884;47.450;19.124;2023-05-15T11:14:27;0.60;;;0.40;;
44214;SDS011;29884;47.450;19.124;2023-05-15T11:21:46;0.52;;;0.40;;
44214;SDS011;29884;47.450;19.124;2023-05-15T11:24:17;0.75;;;0.40;;
44214;SDS011;29884;47.450;19.124;2023-05-15T11:26:43;0.73;;;0.47;;
44214;SDS011;29884;47.450;19.124;2023-05-15T11:29:18;0.40;;;0.30;;
44214;SDS011;29884;47.450;19.124;2023-05-15T11:31:44;0.50;;;0.40;;
44214;SDS011;29884;47.450;19.124;2023-05-15T11:34:10;0.90;;;0.38;;
44214;SDS011;29884;47.450;19.124;2023-05-15T11:36:38;0.60;;;0.30;;
44214;SDS011;29884;47.450;19.124;2023-05-15T11:39:10;0.70;;;0.35;;
44214;SDS011;29884;47.450;19.124;2023-05-15T11:41:36;0.20;;;0.20;;
44214;SDS011;29884;47.450;19.124;2023-05-15T11:44:03;0.30;;;0.25;;
44214;SDS011;29884;47.450;19.124;2023-05-15T11:46:29;0.43;;;0.30;;
44214;SDS011;29884;47.450;19.124;2023-05-15T11:48:56;1.38;;;0.38;;
44214;SDS011;29884;47.450;19.124;2023-05-15T11:51:23;2.05;;;0.40;;
44214;SDS011;29884;47.450;19.124;2023-05-15T11:53:50;0.63;;;0.50;;
44214;SDS011;29884;47.450;19.124;2023-05-15T11:56:18;1.73;;;0.40;;
44214;SDS011;29884;47.450;19.124;2023-05-15T11:58:53;0.80;;;0.50;;
44214;SDS011;29884;47.450;19.124;2023-05-15T12:01:20;1.10;;;0.50;;
44214;SDS011;29884;47.450;19.124;2023-05-15T12:03:47;1.48;;;0.65;;
44214;SDS011;29884;47.450;19.124;2023-05-15T12:06:13;0.90;;;0.50;;
44214;SDS011;29884;47.450;19.124;2023-05-15T12:08:40;0.82;;;0.68;;
44214;SDS011;29884;47.450;19.124;2023-05-15T12:11:06;1.00;;;0.50;;
44214;SDS011;29884;47.450;19.124;2023-05-15T12:13:32;0.80;;;0.40;;
44214;SDS011;29884;47.450;19.124;2023-05-15T12:15:59;0.80;;;0.50;;
44214;SDS011;29884;47.450;19.124;2023-05-15T12:18:27;2.05;;;0.50;;
44214;SDS011;29884;47.450;19.124;2023-05-15T12:20:53;0.65;;;0.45;;
44214;SDS011;29884;47.450;19.124;2023-05-15T12:23:22;0.85;;;0.40;;
44214;SDS011;29884;47.450;19.124;2023-05-15T12:25:48;0.88;;;0.52;;
44214;SDS011;29884;47.450;19.124;2023-05-15T12:28:19;1.05;;;0.60;;
44214;SDS011;29884;47.450;19.124;2023-05-15T12:30:45;1.50;;;0.60;;
44214;SDS011;29884;47.450;19.124;2023-05-15T12:33:11;0.93;;;0.60;;
44214;SDS011;29884;47.450;19.124;2023-05-15T12:35:41;0.68;;;0.55;;
44214;SDS011;29884;47.450;19.124;2023-05-15T12:38:08;0.98;;;0.55;;
44214;SDS011;29884;47.450;19.124;2023-05-15T12:40:39;0.68;;;0.50;;
44214;SDS011;29884;47.450;19.124;2023-05-15T12:43:07;0.60;;;0.50;;
44214;SDS011;29884;47.450;19.124;2023-05-15T12:45:36;0.68;;;0.30;;
44214;SDS011;29884;47.450;19.124;2023-05-15T12:48:03;0.32;;;0.30;;
44214;SDS011;29884;47.450;19.124;2023-05-15T12:50:31;0.73;;;0.30;;
44214;SDS011;29884;47.450;19.124;2023-05-15T12:53:00;3.85;;;0.30;;
44214;SDS011;29884;47.450;19.124;2023-05-15T12:55:31;0.43;;;0.25;;
44214;SDS011;29884;47.450;19.124;2023-05-15T12:57:58;0.50;;;0.30;;
44214;SDS011;29884;47.450;19.124;2023-05-15T13:00:30;0.55;;;0.30;;
44214;SDS011;29884;47.450;19.124;2023-05-15T13:02:57;0.60;;;0.30;;
44214;SDS011;29884;47.450;19.124;2023-05-15T13:05:27;0.65;;;0.40;;
44214;SDS011;29884;47.450;19.124;2023-05-15T13:07:56;0.50;;;0.38;;
44214;SDS011;29884;47.450;19.124;2023-05-15T13:10:23;0.65;;;0.40;;
44214;SDS011;29884;47.450;19.124;2023-05-15T13:12:50;0.63;;;0.40;;
44214;SDS011;29884;47.450;19.124;2023-05-15T13:15:23;1.60;;;0.40;;
44214;SDS011;29884;47.450;19.124;2023-05-15T13:17:53;0.90;;;0.40;;
44214;SDS011;29884;47.450;19.124;2023-05-15T13:20:20;1.98;;;0.60;;
44214;SDS011;29884;47.450;19.124;2023-05-15T13:22:46;0.70;;;0.60;;
44214;SDS011;29884;47.450;19.124;2023-05-15T13:25:15;1.13;;;0.52;;
44214;SDS011;29884;47.450;19.124;2023-05-15T13:27:42;0.93;;;0.50;;
44214;SDS011;29884;47.450;19.124;2023-05-15T13:30:09;1.58;;;0.50;;
44214;SDS011;29884;47.450;19.124;2023-05-15T13:32:35;1.67;;;0.40;;
44214;SDS011;29884;47.450;19.124;2023-05-15T13:35:00;0.50;;;0.30;;
44214;SDS011;29884;47.450;19.124;2023-05-15T13:37:27;0.30;;;0.30;;
44214;SDS011;29884;47.450;19.124;2023-05-15T13:39:52;0.60;;;0.40;;
44214;SDS011;29884;47.450;19.124;2023-05-15T13:42:18;0.60;;;0.47;;
44214;SDS011;29884;47.450;19.124;2023-05-15T13:44:44;2.55;;;0.47;;
44214;SDS011;29884;47.450;19.124;2023-05-15T13:47:10;0.60;;;0.43;;
44214;SDS011;29884;47.450;19.124;2023-05-15T13:49:35;2.35;;;0.40;;
44214;SDS011;29884;47.450;19.124;2023-05-15T13:52:01;0.60;;;0.40;;
44214;SDS011;29884;47.450;19.124;2023-05-15T13:54:28;1.65;;;0.30;;
44214;SDS011;29884;47.450;19.124;2023-05-15T13:56:55;0.63;;;0.40;;
44214;SDS011;29884;47.450;19.124;2023-05-15T13:59:20;0.98;;;0.50;;
44214;SDS011;29884;47.450;19.124;2023-05-15T14:01:46;0.60;;;0.50;;
44214;SDS011;29884;47.450;19.124;2023-05-15T14:04:12;1.92;;;0.50;;
44214;SDS011;29884;47.450;19.124;2023-05-15T14:06:37;2.53;;;0.43;;
44214;SDS011;29884;47.450;19.124;2023-05-15T14:09:03;0.50;;;0.40;;
44214;SDS011;29884;47.450;19.124;2023-05-15T14:11:31;0.60;;;0.50;;
44214;SDS011;29884;47.450;19.124;2023-05-15T14:13:57;0.98;;;0.60;;
44214;SDS011;29884;47.450;19.124;2023-05-15T14:16:22;0.80;;;0.50;;
44214;SDS011;29884;47.450;19.124;2023-05-15T14:18:48;2.70;;;0.60;;
44214;SDS011;29884;47.450;19.124;2023-05-15T14:21:14;0.98;;;0.60;;
44214;SDS011;29884;47.450;19.124;2023-05-15T14:23:39;2.78;;;0.60;;
44214;SDS011;29884;47.450;19.124;2023-05-15T14:26:05;0.93;;;0.60;;
44214;SDS011;29884;47.450;19.124;2023-05-15T14:28:31;0.70;;;0.50;;
44214;SDS011;29884;47.450;19.124;2023-05-15T14:30:58;1.00;;;0.60;;
44214;SDS011;29884;47.450;19.124;2023-05-15T14:33:24;0.70;;;0.60;;
44214;SDS011;29884;47.450;19.124;2023-05-15T14:35:50;0.70;;;0.55;;
44214;SDS011;29884;47.450;19.124;2023-05-15T14:38:17;0.88;;;0.60;;
44214;SDS011;29884;47.450;19.124;2023-05-15T14:40:43;0.88;;;0.50;;
44214;SDS011;29884;47.450;19.124;2023-05-15T14:43:08;0.82;;;0.52;;
44214;SDS011;29884;47.450;19.124;2023-05-15T14:45:34;1.15;;;0.60;;
44214;SDS011;29884;47.450;19.124;2023-05-15T14:48:00;1.10;;;0.60;;
44214;SDS011;29884;47.450;19.124;2023-05-15T14:50:25;0.98;;;0.70;;
44214;SDS011;29884;47.450;19.124;2023-05-15T14:52:51;1.52;;;0.80;;
44214;SDS011;29884;47.450;19.124;2023-05-15T14:55:18;1.00;;;0.70;;
44214;SDS011;29884;47.450;19.124;2023-05-15T14:57:47;0.90;;;0.70;;
44214;SDS011;29884;47.450;19.124;2023-05-15T15:00:15;1.17;;;0.70;;
44214;SDS011;29884;47.450;19.124;2023-05-15T15:02:42;1.67;;;0.75;;
44214;SDS011;29884;47.450;19.124;2023-05-15T15:05:08;0.90;;;0.63;;
44214;SDS011;29884;47.450;19.124;2023-05-15T15:10:22;1.10;;;0.70;;